Time;durP1;ratioP1;P1;durP2;ratioP2;P2;SDS_P1;SDS_P2;PMS_P1;PMS_P2;Temp;Humidity;BMP_temperature;BMP_pressure;BME280_temperature;BME280_humidity;BME280_pressure;Samples;Min_cycle;Max_cycle;Signal;HPM_P1;HPM_P2
2022/04/17 00:01:02;;;;;;;4.45;3.08;;;;;;;;;;5052060;28;20087;-68
2022/04/17 00:03:28;;;;;;;7.07;3.08;;;8.20;99.90;;;;;;5052894;28;20410;-68
2022/04/17 00:05:54;;;;;;;7.18;3.50;;;;;;;;;;5070713;28;20043;-69
2022/04/17 00:08:19;;;;;;;5.03;3.03;;;7.90;99.90;;;;;;5052903;28;20036;-68
2022/04/17 00:10:46;;;;;;;6.70;3.28;;;;;;;;;;5069998;28;20563;-68
2022/04/17 00:13:13;;;;;;;4.38;3.08;;;;;;;;;;5052624;28;20047;-68
2022/04/17 00:15:39;;;;;;;8.10;3.95;;;;;;;;;;5052459;28;20040;-69
2022/04/17 00:18:04;;;;;;;5.03;3.47;;;8.00;99.90;;;;;;5052721;28;20047;-70
2022/04/17 00:20:33;;;;;;;4.40;3.17;;;;;;;;;;5069806;28;20068;-68
2022/04/17 00:22:59;;;;;;;6.35;4.22;;;;;;;;;;5052633;28;20498;-68
2022/04/17 00:25:25;;;;;;;6.50;3.78;;;;;;;;;;5054161;28;20094;-69
2022/04/17 00:27:51;;;;;;;4.95;3.50;;;;;;;;;;5056541;28;20036;-69
2022/04/17 00:30:17;;;;;;;8.32;3.67;;;;;;;;;;5055672;28;20112;-68
2022/04/17 00:32:43;;;;;;;7.32;3.58;;;;;;;;;;5056135;28;20044;-68
2022/04/17 00:35:09;;;;;;;10.73;3.80;;;;;;;;;;5055982;28;20044;-69
2022/04/17 00:37:36;;;;;;;4.95;3.88;;;;;;;;;;5072348;28;20037;-68
2022/04/17 00:40:04;;;;;;;5.88;3.90;;;;;;;;;;5073303;28;20045;-68
2022/04/17 00:42:31;;;;;;;5.85;3.75;;;;;;;;;;5056173;28;20131;-69
2022/04/17 00:44:57;;;;;;;6.97;4.53;;;8.00;99.90;;;;;;5073532;28;20066;-68
2022/04/17 00:47:22;;;;;;;7.20;4.13;;;7.80;99.90;;;;;;5056006;28;20040;-68
2022/04/17 00:49:48;;;;;;;5.60;3.83;;;7.80;99.90;;;;;;5071027;28;20110;-67
2022/04/17 00:52:16;;;;;;;6.35;4.05;;;7.70;99.90;;;;;;5074503;28;20615;-69
2022/04/17 00:54:46;;;;;;;5.40;3.80;;;7.70;99.90;;;;;;5074365;28;20040;-68
2022/04/17 00:57:15;;;;;;;7.88;4.43;;;7.70;99.90;;;;;;5075808;28;20220;-68
2022/04/17 00:59:45;;;;;;;5.75;4.15;;;7.60;99.90;;;;;;5073683;28;20044;-68
2022/04/17 01:02:11;;;;;;;5.47;3.40;;;7.80;99.90;;;;;;5091347;28;20055;-68
2022/04/17 01:04:39;;;;;;;8.45;4.35;;;7.80;99.90;;;;;;5058631;28;20086;-68
2022/04/17 01:07:05;;;;;;;6.68;4.30;;;7.70;99.90;;;;;;5093656;28;20087;-68
2022/04/17 01:09:31;;;;;;;8.68;3.97;;;7.70;99.90;;;;;;5093151;28;20040;-68
2022/04/17 01:11:58;;;;;;;4.63;3.42;;;7.50;99.90;;;;;;5093873;28;20058;-68
2022/04/17 01:14:27;;;;;;;8.30;3.83;;;7.60;99.90;;;;;;5093479;28;20120;-70
2022/04/17 01:16:53;;;;;;;7.18;4.30;;;7.40;99.90;;;;;;5051697;22;20048;-71
2022/04/17 01:19:19;;;;;;;7.97;4.47;;;7.40;99.90;;;;;;5032779;28;20038;-72
2022/04/17 01:21:49;;;;;;;7.40;4.07;;;7.60;99.90;;;;;;5015931;28;20037;-71
2022/04/17 01:27:02;;;;;;;7.00;4.13;;;7.60;99.90;;;;;;5029658;28;20140;-72
2022/04/17 01:29:34;;;;;;;5.97;4.30;;;7.50;99.90;;;;;;5032527;28;20499;-72
2022/04/17 01:32:02;;;;;;;7.85;4.63;;;7.60;99.90;;;;;;5032223;28;20516;-72
2022/04/17 01:34:28;;;;;;;6.05;4.05;;;7.60;99.90;;;;;;5032164;28;20044;-71
2022/04/17 01:36:54;;;;;;;10.10;4.30;;;7.50;99.90;;;;;;5031448;28;20479;-71
2022/04/17 01:39:20;;;;;;;5.32;3.90;;;7.40;99.90;;;;;;5031301;28;20128;-71
2022/04/17 01:41:47;;;;;;;6.90;4.78;;;7.50;99.90;;;;;;5031854;28;20491;-71
2022/04/17 01:44:13;;;;;;;7.25;4.03;;;7.40;99.90;;;;;;5032976;28;20052;-71
2022/04/17 01:46:39;;;;;;;9.93;4.90;;;7.20;99.90;;;;;;5031789;28;20099;-72
2022/04/17 01:49:04;;;;;;;11.68;4.65;;;7.40;99.90;;;;;;5032716;28;20450;-72
2022/04/17 01:51:38;;;;;;;5.53;4.05;;;7.30;99.90;;;;;;5031550;28;20557;-71
2022/04/17 01:54:26;;;;;;;7.50;4.85;;;7.30;99.90;;;;;;5033040;28;20042;-71
2022/04/17 01:56:52;;;;;;;5.97;4.10;;;7.40;99.90;;;;;;5031601;28;20403;-71
2022/04/17 01:59:19;;;;;;;7.18;4.60;;;7.50;99.90;;;;;;5030773;28;20037;-71
2022/04/17 02:01:45;;;;;;;7.47;4.90;;;;;;;;;;5031700;28;20041;-72
2022/04/17 02:04:12;;;;;;;7.00;4.57;;;7.50;99.90;;;;;;5032907;28;20095;-71
2022/04/17 02:06:42;;;;;;;7.13;5.10;;;7.30;99.90;;;;;;5031291;28;20037;-71
2022/04/17 02:09:15;;;;;;;8.40;5.45;;;;;;;;;;5014309;28;20068;-71
2022/04/17 02:11:42;;;;;;;7.77;5.00;;;;;;;;;;5031497;28;20191;-72
2022/04/17 02:14:09;;;;;;;10.73;5.25;;;;;;;;;;5032743;28;20069;-71
2022/04/17 02:16:35;;;;;;;9.77;4.93;;;;;;;;;;5031160;28;20041;-71
2022/04/17 02:19:02;;;;;;;8.43;4.93;;;;;;;;;;5014226;28;20045;-71
2022/04/17 02:21:28;;;;;;;5.53;4.53;;;;;;;;;;5014872;28;20041;-71
2022/04/17 02:23:55;;;;;;;8.02;5.15;;;;;;;;;;5031351;28;20084;-72
2022/04/17 02:26:21;;;;;;;8.98;4.95;;;;;;;;;;5032633;28;20456;-71
2022/04/17 02:28:47;;;;;;;8.48;4.55;;;;;;;;;;5031033;28;20045;-71
2022/04/17 02:31:16;;;;;;;9.20;5.57;;;;;;;;;;5031690;28;20038;-71
2022/04/17 02:33:41;;;;;;;10.75;5.13;;;7.10;99.90;;;;;;5030964;28;20196;-71
2022/04/17 02:36:07;;;;;;;5.80;4.40;;;;;;;;;;5030987;28;20523;-71
2022/04/17 02:38:33;;;;;;;8.73;5.30;;;;;;;;;;5030985;28;20461;-71
2022/04/17 02:40:59;;;;;;;10.77;5.75;;;;;;;;;;5031779;28;20080;-71
2022/04/17 02:43:25;;;;;;;8.82;5.57;;;;;;;;;;5031893;28;20400;-71
2022/04/17 02:45:52;;;;;;;5.80;4.57;;;;;;;;;;5030931;28;20045;-71
2022/04/17 02:48:19;;;;;;;7.05;4.90;;;;;;;;;;5030183;28;20041;-71
2022/04/17 02:50:46;;;;;;;9.40;5.30;;;;;;;;;;5030210;28;20456;-71
2022/04/17 02:53:12;;;;;;;11.32;5.43;;;;;;;;;;5031097;28;20049;-72
2022/04/17 02:55:38;;;;;;;11.15;5.78;;;;;;;;;;5032473;28;20045;-72
2022/04/17 02:58:04;;;;;;;7.63;5.13;;;;;;;;;;5030650;28;20064;-71
2022/04/17 03:00:31;;;;;;;6.40;5.15;;;;;;;;;;5030226;28;20045;-71
2022/04/17 03:05:42;;;;;;;8.20;5.22;;;;;;;;;;5031884;28;20049;-71
2022/04/17 03:08:15;;;;;;;9.45;6.20;;;6.60;99.90;;;;;;5030583;28;20096;-71
2022/04/17 03:10:43;;;;;;;8.43;5.70;;;6.70;99.90;;;;;;5031446;28;20041;-71
2022/04/17 03:13:10;;;;;;;8.20;5.60;;;;;;;;;;5034707;28;20029;-71
2022/04/17 03:15:40;;;;;;;11.48;5.93;;;6.60;99.90;;;;;;5033733;28;20045;-71
2022/04/17 03:18:10;;;;;;;9.38;5.30;;;;;;;;;;5030654;28;20052;-71
2022/04/17 03:20:36;;;;;;;8.07;5.07;;;;;;;;;;5029763;28;20085;-71
2022/04/17 03:23:03;;;;;;;9.30;5.97;;;;;;;;;;5030752;28;20052;-71
2022/04/17 03:25:29;;;;;;;8.60;6.18;;;;;;;;;;5030785;28;20145;-70
2022/04/17 03:27:57;;;;;;;9.98;6.45;;;;;;;;;;5030386;28;20099;-70
2022/04/17 03:30:23;;;;;;;11.20;6.07;;;;;;;;;;5029658;28;20046;-71
2022/04/17 03:32:50;;;;;;;8.05;5.97;;;6.40;99.90;;;;;;5030706;28;20120;-70
2022/04/17 03:35:17;;;;;;;9.13;5.45;;;;;;;;;;5031899;28;20042;-71
2022/04/17 03:37:43;;;;;;;9.13;5.63;;;;;;;;;;5030495;28;20091;-71
2022/04/17 03:40:13;;;;;;;7.72;5.40;;;;;;;;;;5030753;28;20045;-71
2022/04/17 03:42:40;;;;;;;6.80;4.97;;;6.40;99.90;;;;;;5030193;28;20053;-71
2022/04/17 03:45:08;;;;;;;8.65;6.07;;;6.30;99.90;;;;;;5029813;28;20048;-70
2022/04/17 03:47:35;;;;;;;11.65;6.38;;;;;;;;;;5030384;28;20103;-70
2022/04/17 03:50:01;;;;;;;9.43;5.70;;;;;;;;;;5029253;28;20120;-71
2022/04/17 03:52:27;;;;;;;7.72;5.57;;;;;;;;;;5030403;28;20041;-71
2022/04/17 03:54:53;;;;;;;10.43;6.05;;;;;;;;;;5014017;28;20454;-70
2022/04/17 03:57:18;;;;;;;10.48;6.10;;;6.40;99.90;;;;;;5031407;28;20522;-71
2022/04/17 03:59:44;;;;;;;9.68;5.68;;;;;;;;;;5032731;28;20041;-71
2022/04/17 04:02:10;;;;;;;10.68;6.50;;;;;;;;;;5034246;28;20042;-71
2022/04/17 04:04:37;;;;;;;8.57;6.00;;;6.30;99.90;;;;;;5033838;28;20056;-71
2022/04/17 04:07:03;;;;;;;9.13;6.22;;;;;;;;;;5035245;28;20060;-71
2022/04/17 04:09:29;;;;;;;10.55;6.45;;;;;;;;;;5034469;28;20069;-71
2022/04/17 04:11:55;;;;;;;9.20;6.57;;;;;;;;;;5035136;28;20041;-71
2022/04/17 04:14:21;;;;;;;13.18;6.45;;;;;;;;;;5033650;28;20077;-71
2022/04/17 04:16:46;;;;;;;8.50;5.50;;;6.20;99.90;;;;;;5033591;28;20521;-71
2022/04/17 04:19:13;;;;;;;10.95;6.43;;;;;;;;;;5032924;28;20120;-70
2022/04/17 04:21:48;;;;;;;8.57;6.05;;;;;;;;;;5033593;28;20128;-72
2022/04/17 04:24:15;;;;;;;10.25;6.60;;;6.10;99.90;;;;;;5033574;28;20076;-70
2022/04/17 04:26:44;;;;;;;11.77;6.95;;;6.00;99.90;;;;;;5033588;28;20124;-71
2022/04/17 04:29:10;;;;;;;11.10;6.18;;;6.10;99.90;;;;;;5032816;28;20033;-70
2022/04/17 04:31:36;;;;;;;11.02;5.65;;;;;;;;;;5035075;28;20106;-70
2022/04/17 04:34:03;;;;;;;11.45;6.28;;;6.20;99.90;;;;;;5033826;28;20538;-72
2022/04/17 04:36:29;;;;;;;10.63;6.80;;;6.20;99.90;;;;;;5033588;28;20120;-71
2022/04/17 04:38:55;;;;;;;11.45;6.95;;;;;;;;;;5033018;28;20124;-70
2022/04/17 04:41:21;;;;;;;8.73;6.53;;;;;;;;;;5016346;28;20045;-70
2022/04/17 04:43:46;;;;;;;10.55;6.57;;;6.10;99.90;;;;;;5016926;28;20042;-71
2022/04/17 04:46:12;;;;;;;10.68;6.43;;;;;;;;;;5034627;28;20098;-70
2022/04/17 04:51:25;;;;;;;9.52;6.35;;;6.00;99.90;;;;;;5032764;28;20077;-71
2022/04/17 04:53:51;;;;;;;9.52;6.63;;;;;;;;;;5033585;28;20045;-70
2022/04/17 04:56:17;;;;;;;8.30;6.32;;;;;;;;;;5031715;28;20171;-70
2022/04/17 04:58:44;;;;;;;10.13;6.43;;;;;;;;;;5032297;28;20121;-71
2022/04/17 05:01:10;;;;;;;8.45;5.93;;;6.10;99.90;;;;;;5032388;28;20037;-71
2022/04/17 05:03:36;;;;;;;10.38;6.47;;;6.20;99.90;;;;;;5033106;28;20486;-70
2022/04/17 05:06:02;;;;;;;10.00;7.18;;;;;;;;;;5049281;28;20092;-70
2022/04/17 05:08:28;;;;;;;12.90;6.65;;;;;;;;;;5033901;28;20049;-71
2022/04/17 05:10:54;;;;;;;11.27;6.88;;;;;;;;;;5014594;28;20041;-70
2022/04/17 05:13:20;;;;;;;11.48;7.07;;;;;;;;;;5032643;28;20487;-71
2022/04/17 05:15:46;;;;;;;9.45;6.60;;;6.00;99.90;;;;;;5032472;28;20103;-70
2022/04/17 05:18:12;;;;;;;11.07;6.40;;;;;;;;;;5028443;28;20042;-70
2022/04/17 05:20:37;;;;;;;11.93;7.38;;;6.20;99.90;;;;;;5032261;28;20049;-70
2022/04/17 05:23:29;;;;;;;11.45;6.55;;;6.40;99.90;;;;;;5032161;28;20051;-70
2022/04/17 05:25:56;;;;;;;11.25;6.93;;;;;;;;;;5032278;28;20045;-70
2022/04/17 05:28:22;;;;;;;9.35;7.03;;;6.30;99.90;;;;;;5032145;28;20076;-70
2022/04/17 05:30:48;;;;;;;12.65;7.55;;;;;;;;;;5014952;28;20033;-70
2022/04/17 05:33:14;;;;;;;13.52;7.28;;;;;;;;;;5033284;28;20074;-71
2022/04/17 05:35:40;;;;;;;12.85;7.38;;;6.40;99.90;;;;;;5032869;28;20037;-70
2022/04/17 05:38:06;;;;;;;10.23;6.85;;;;;;;;;;5035202;28;20045;-70
2022/04/17 05:40:37;;;;;;;10.85;6.60;;;6.70;99.90;;;;;;5051071;28;20093;-71
2022/04/17 05:43:04;;;;;;;12.32;7.05;;;6.90;99.90;;;;;;5051770;28;20048;-70
2022/04/17 05:45:30;;;;;;;11.10;7.13;;;6.70;99.90;;;;;;5051601;28;20045;-71
2022/04/17 05:47:56;;;;;;;12.18;7.15;;;6.60;99.90;;;;;;5052957;28;20479;-71
2022/04/17 05:50:22;;;;;;;14.70;8.02;;;;;;;;;;5052368;28;20143;-71
2022/04/17 05:52:48;;;;;;;9.68;7.35;;;6.80;99.90;;;;;;5051477;28;20040;-71
2022/04/17 05:55:15;;;;;;;10.52;6.57;;;;;;;;;;5051608;28;20410;-71
2022/04/17 05:57:41;;;;;;;13.98;6.97;;;7.00;99.90;;;;;;5051749;28;20124;-71
2022/04/17 06:00:08;;;;;;;11.57;6.25;;;;;;;;;;5050116;28;20080;-71
2022/04/17 06:02:35;;;;;;;9.48;6.82;;;6.90;99.90;;;;;;5020688;28;20048;-72
2022/04/17 06:05:03;;;;;;;9.85;6.65;;;;;;;;;;5021637;28;20626;-71
2022/04/17 06:07:29;;;;;;;8.98;6.72;;;;;;;;;;5014941;28;20042;-72
2022/04/17 06:09:55;;;;;;;11.93;6.72;;;7.40;99.90;;;;;;5030892;28;20385;-72
2022/04/17 06:12:21;;;;;;;10.30;6.75;;;7.40;99.90;;;;;;5018251;28;20044;-72
2022/04/17 06:14:46;;;;;;;11.00;6.75;;;7.40;99.90;;;;;;5051602;28;20411;-72
2022/04/17 06:17:12;;;;;;;12.15;6.97;;;;;;;;;;5051486;28;20072;-72
2022/04/17 06:19:38;;;;;;;17.00;8.00;;;7.30;99.90;;;;;;5027149;28;20068;-72
2022/04/17 06:22:04;;;;;;;13.45;7.28;;;7.50;99.90;;;;;;5048706;28;20041;-71
2022/04/17 06:24:29;;;;;;;10.82;6.95;;;7.40;99.90;;;;;;5050950;28;20044;-72
2022/04/17 06:26:55;;;;;;;13.32;7.60;;;;;;;;;;5051144;28;20132;-71
2022/04/17 06:29:21;;;;;;;9.88;7.20;;;;;;;;;;5050446;28;20110;-72
2022/04/17 06:31:47;;;;;;;12.63;7.45;;;;;;;;;;5052053;28;20037;-72
2022/04/17 06:34:13;;;;;;;9.98;6.85;;;7.60;99.90;;;;;;5051043;28;20049;-73
2022/04/17 06:36:39;;;;;;;12.30;6.97;;;7.80;99.90;;;;;;5063810;28;20041;-73
2022/04/17 06:39:05;;;;;;;13.40;6.88;;;7.60;99.90;;;;;;5049067;28;20045;-72
2022/04/17 06:41:31;;;;;;;10.85;6.75;;;;;;;;;;5065803;28;20080;-72
2022/04/17 06:43:57;;;;;;;11.00;7.13;;;8.10;99.90;;;;;;5066065;28;20049;-72
2022/04/17 06:46:23;;;;;;;10.52;6.80;;;;;;;;;;5050853;28;20082;-72
2022/04/17 06:48:49;;;;;;;10.63;7.25;;;;;;;;;;5069272;28;20040;-72
2022/04/17 06:51:15;;;;;;;9.75;6.63;;;;;;;;;;5045898;28;20082;-72
2022/04/17 06:53:41;;;;;;;12.38;7.72;;;;;;;;;;5051096;28;20502;-72
2022/04/17 06:56:07;;;;;;;13.85;7.68;;;8.50;99.90;;;;;;5050927;28;20045;-72
2022/04/17 06:58:33;;;;;;;10.45;7.07;;;;;;;;;;5033981;28;20128;-72
2022/04/17 07:00:59;;;;;;;10.10;6.20;;;;;;;;;;5049604;28;20079;-72
2022/04/17 07:03:25;;;;;;;12.77;7.88;;;8.70;99.90;;;;;;5050405;28;20068;-72
2022/04/17 07:05:51;;;;;;;11.80;7.72;;;8.80;99.90;;;;;;5050332;28;20517;-72
2022/04/17 07:08:16;;;;;;;11.15;8.02;;;8.90;99.90;;;;;;5051395;28;20040;-72
2022/04/17 07:10:42;;;;;;;9.43;6.65;;;;;;;;;;5049641;28;20069;-72
2022/04/17 07:13:18;;;;;;;11.13;7.28;;;8.80;99.90;;;;;;5024549;28;20065;-72
2022/04/17 07:15:44;;;;;;;11.80;7.18;;;;;;;;;;5060311;22;20442;-68
2022/04/17 07:18:09;;;;;;;17.27;7.63;;;9.10;99.90;;;;;;5053286;28;20417;-68
2022/04/17 07:20:35;;;;;;;11.50;7.13;;;9.20;99.90;;;;;;5070491;28;20028;-68
2022/04/17 07:23:01;;;;;;;10.35;6.95;;;9.30;99.90;;;;;;5071152;28;20043;-68
2022/04/17 07:25:27;;;;;;;10.45;7.38;;;9.30;99.90;;;;;;5053356;28;20041;-68
2022/04/17 07:27:55;;;;;;;10.57;7.13;;;;;;;;;;5052945;28;20355;-67
2022/04/17 07:30:26;;;;;;;11.15;6.55;;;9.60;99.90;;;;;;5070363;28;20044;-70
2022/04/17 07:32:57;;;;;;;8.73;6.78;;;9.60;99.90;;;;;;5069624;28;20213;-67
2022/04/17 07:35:24;;;;;;;14.05;7.50;;;9.70;99.90;;;;;;5074409;28;20044;-69
2022/04/17 07:37:51;;;;;;;11.80;7.30;;;9.60;99.90;;;;;;5055346;28;20055;-68
2022/04/17 07:40:19;;;;;;;13.75;6.93;;;;;;;;;;5053040;28;20037;-68
2022/04/17 07:42:45;;;;;;;11.15;6.63;;;10.10;99.90;;;;;;5069929;28;20048;-68
2022/04/17 07:45:12;;;;;;;10.95;6.00;;;10.20;99.90;;;;;;5056590;28;20040;-66
2022/04/17 07:47:38;;;;;;;13.40;7.00;;;;;;;;;;5075441;28;20048;-68
2022/04/17 07:50:07;;;;;;;11.02;6.97;;;10.40;99.90;;;;;;5055713;28;20457;-68
2022/04/17 07:52:36;;;;;;;9.40;6.60;;;10.30;99.90;;;;;;5055082;28;20407;-69
2022/04/17 07:55:05;;;;;;;10.10;6.43;;;10.60;99.90;;;;;;5053688;28;20098;-69
2022/04/17 08:00:19;;;;;;;9.13;6.35;;;;;;;;;;5067609;28;20036;-68
2022/04/17 08:02:50;;;;;;;10.95;6.63;;;;;;;;;;5065733;28;20180;-70
2022/04/17 08:05:16;;;;;;;10.40;6.20;;;;;;;;;;5043490;28;20406;-69
2022/04/17 08:07:42;;;;;;;8.65;6.32;;;;;;;;;;5044599;28;20049;-66
2022/04/17 08:10:08;;;;;;;9.48;6.50;;;11.10;99.90;;;;;;5049653;28;20040;-69
2022/04/17 08:12:34;;;;;;;10.10;5.65;;;;;;;;;;5064215;28;20071;-69
2022/04/17 08:15:01;;;;;;;9.82;5.93;;;;;;;;;;5045267;28;20069;-69
2022/04/17 08:17:27;;;;;;;8.63;5.78;;;;;;;;;;5055858;28;20037;-69
2022/04/17 08:19:53;;;;;;;10.45;6.65;;;;;;;;;;5056961;28;20044;-67
2022/04/17 08:22:19;;;;;;;7.45;5.72;;;;;;;;;;5033261;28;20063;-70
2022/04/17 08:24:45;;;;;;;9.68;5.85;;;;;;;;;;5041173;28;20040;-66
2022/04/17 08:27:11;;;;;;;9.52;5.95;;;;;;;;;;5066067;28;20124;-69
2022/04/17 08:29:37;;;;;;;9.40;5.90;;;;;;;;;;5066227;28;20044;-68
2022/04/17 08:32:03;;;;;;;9.32;5.40;;;11.60;98.50;;;;;;5063205;28;20036;-70
2022/04/17 08:34:29;;;;;;;8.48;5.25;;;;;;;;;;5050244;28;20028;-70
2022/04/17 08:36:55;;;;;;;9.38;5.50;;;;;;;;;;5062535;28;20047;-70
2022/04/17 08:39:21;;;;;;;8.48;5.53;;;;;;;;;;5062859;28;20043;-70
2022/04/17 08:41:48;;;;;;;9.50;5.75;;;;;;;;;;5071140;28;20040;-69
2022/04/17 08:44:14;;;;;;;8.82;5.20;;;11.80;97.60;;;;;;5068661;28;20407;-69
2022/04/17 08:46:41;;;;;;;9.25;5.68;;;12.20;97.40;;;;;;5053814;28;20051;-70
2022/04/17 08:49:09;;;;;;;7.47;5.40;;;12.30;97.50;;;;;;5053270;28;20064;-67
2022/04/17 08:51:36;;;;;;;8.70;5.65;;;12.30;98.40;;;;;;5050573;28;20482;-69
2022/04/17 08:54:03;;;;;;;9.90;5.85;;;12.30;97.20;;;;;;5055208;28;20067;-69
2022/04/17 08:56:29;;;;;;;7.88;5.80;;;;;;;;;;5054592;28;20111;-69
2022/04/17 08:58:56;;;;;;;9.05;5.35;;;;;;;;;;5054746;28;20040;-69
2022/04/17 09:01:21;;;;;;;8.35;5.55;;;12.40;97.60;;;;;;5055154;28;20048;-70
2022/04/17 09:03:47;;;;;;;7.90;5.40;;;12.40;97.90;;;;;;5054125;28;20174;-69
2022/04/17 09:06:20;;;;;;;9.63;5.75;;;12.40;96.60;;;;;;5072904;28;20098;-69
2022/04/17 09:09:01;;;;;;;8.83;5.50;;;12.80;96.50;;;;;;5055315;28;20154;-68
2022/04/17 09:11:29;;;;;;;10.25;5.38;;;12.70;97.00;;;;;;5054547;28;20093;-69
2022/04/17 09:13:59;;;;;;;10.73;5.97;;;12.70;96.70;;;;;;5073453;28;20068;-67
2022/04/17 09:16:29;;;;;;;7.03;5.15;;;12.80;96.80;;;;;;5054719;28;20047;-69
2022/04/17 09:18:57;;;;;;;8.50;5.47;;;13.00;96.60;;;;;;5072372;28;20041;-68
2022/04/17 09:21:33;;;;;;;5.75;4.43;;;13.10;97.40;;;;;;5072457;28;20031;-68
2022/04/17 09:24:19;;;;;;;8.27;5.10;;;13.20;96.30;;;;;;5038626;28;20043;-69
2022/04/17 09:26:56;;;;;;;7.07;4.63;;;13.40;96.10;;;;;;5054930;28;20490;-69
2022/04/17 09:29:30;;;;;;;6.88;4.78;;;13.50;95.90;;;;;;5054438;28;20040;-69
2022/04/17 09:32:04;;;;;;;6.40;4.82;;;13.60;97.40;;;;;;5038377;28;20513;-69
2022/04/17 09:34:45;;;;;;;7.50;4.43;;;13.60;95.50;;;;;;5072655;28;20044;-69
2022/04/17 09:37:30;;;;;;;6.97;4.25;;;13.80;97.70;;;;;;5072633;28;20033;-69
2022/04/17 09:40:07;;;;;;;8.15;5.43;;;13.70;97.30;;;;;;5053805;28;20052;-69
2022/04/17 09:42:32;;;;;;;5.40;4.43;;;13.60;97.10;;;;;;5037607;28;20045;-69
2022/04/17 09:44:58;;;;;;;8.07;4.82;;;13.80;97.20;;;;;;5050484;28;20037;-70
2022/04/17 09:47:28;;;;;;;6.60;4.50;;;14.60;96.50;;;;;;5059666;28;20502;-70
2022/04/17 09:49:59;;;;;;;7.35;4.30;;;14.20;96.30;;;;;;5057459;28;20758;-69
2022/04/17 09:52:32;;;;;;;7.03;4.45;;;14.00;96.90;;;;;;5041682;28;20036;-70
2022/04/17 09:55:03;;;;;;;7.68;4.97;;;14.30;95.80;;;;;;5056972;28;20032;-70
2022/04/17 09:57:29;;;;;;;7.95;5.72;;;14.10;96.40;;;;;;5024505;28;20067;-70
2022/04/17 10:00:06;;;;;;;6.30;4.78;;;14.20;96.00;;;;;;5075853;28;20051;-70
2022/04/17 10:02:31;;;;;;;6.57;4.82;;;14.30;96.90;;;;;;5038511;28;20040;-69
2022/04/17 10:04:59;;;;;;;5.85;4.35;;;14.20;96.10;;;;;;5053361;28;20101;-69
2022/04/17 10:07:27;;;;;;;6.03;4.35;;;14.40;95.20;;;;;;5054364;28;20044;-69
2022/04/17 10:09:53;;;;;;;7.20;4.30;;;14.60;96.10;;;;;;5053247;28;20086;-69
2022/04/17 10:12:19;;;;;;;7.13;4.85;;;;;;;;;;5072422;28;20453;-69
2022/04/17 10:14:52;;;;;;;7.97;4.57;;;14.60;95.50;;;;;;5064775;28;20048;-69
2022/04/17 10:17:22;;;;;;;6.43;4.32;;;14.60;94.90;;;;;;5036388;28;20083;-65
2022/04/17 10:19:49;;;;;;;5.88;4.32;;;14.90;95.20;;;;;;5070569;28;20498;-68
2022/04/17 10:22:18;;;;;;;6.68;3.88;;;15.20;95.10;;;;;;5051353;28;20045;-68
2022/04/17 10:24:52;;;;;;;5.32;4.07;;;15.20;95.30;;;;;;5053648;28;20032;-68
2022/04/17 10:27:24;;;;;;;5.68;4.57;;;15.40;95.30;;;;;;5071634;28;20414;-68
2022/04/17 10:30:11;;;;;;;6.28;3.83;;;15.40;95.50;;;;;;5033356;28;20037;-69
2022/04/17 10:33:08;;;;;;;6.13;3.60;;;15.30;94.60;;;;;;5041701;28;20044;-68
2022/04/17 10:35:53;;;;;;;5.40;4.38;;;15.50;93.80;;;;;;5036982;28;20068;-69
2022/04/17 10:38:44;;;;;;;5.28;4.10;;;15.50;94.30;;;;;;5071652;28;20468;-68
2022/04/17 10:41:15;;;;;;;6.13;4.07;;;15.50;93.80;;;;;;5053351;28;20032;-69
2022/04/17 10:43:46;;;;;;;4.88;3.90;;;15.30;93.90;;;;;;5036981;28;20094;-68
2022/04/17 10:46:16;;;;;;;6.32;4.85;;;15.40;94.30;;;;;;5071176;28;20490;-68
2022/04/17 10:48:45;;;;;;;6.43;4.57;;;15.60;95.20;;;;;;5053564;28;20103;-68
2022/04/17 10:51:21;;;;;;;7.57;4.53;;;15.70;94.90;;;;;;5070398;28;20036;-68
2022/04/17 10:53:51;;;;;;;7.40;4.40;;;15.60;94.20;;;;;;5053236;28;20055;-68
2022/04/17 10:56:17;;;;;;;5.28;4.22;;;15.60;94.50;;;;;;5037045;28;20040;-68
2022/04/17 10:58:57;;;;;;;6.18;3.90;;;15.60;94.50;;;;;;5070837;28;20074;-69
2022/04/17 11:01:41;;;;;;;6.32;4.72;;;15.70;94.30;;;;;;5044442;28;20084;-69
2022/04/17 11:04:21;;;;;;;6.38;4.05;;;15.90;94.30;;;;;;5052504;28;20106;-68
2022/04/17 11:07:03;;;;;;;6.63;4.55;;;15.80;93.30;;;;;;5036232;28;20041;-68
2022/04/17 11:09:29;;;;;;;7.55;4.60;;;16.30;92.90;;;;;;5035574;28;20032;-68
2022/04/17 11:12:06;;;;;;;5.07;4.20;;;16.20;93.20;;;;;;5053436;28;20684;-68
2022/04/17 11:14:32;;;;;;;4.97;4.03;;;16.20;93.60;;;;;;5053304;28;20123;-68
2022/04/17 11:16:59;;;;;;;4.93;4.03;;;16.10;92.70;;;;;;5070749;28;20162;-69
2022/04/17 11:19:31;;;;;;;6.32;4.25;;;16.20;93.20;;;;;;5070596;28;20047;-68
2022/04/17 11:22:07;;;;;;;6.25;4.32;;;16.10;91.90;;;;;;5052301;28;20043;-68
2022/04/17 11:24:54;;;;;;;7.93;4.82;;;16.30;93.00;;;;;;5053150;28;20033;-68
2022/04/17 11:27:32;;;;;;;10.40;5.40;;;16.40;93.00;;;;;;5070495;28;20406;-68
2022/04/17 11:29:59;;;;;;;6.35;4.53;;;16.50;92.80;;;;;;5070165;28;20482;-69
2022/04/17 11:32:27;;;;;;;8.20;5.38;;;16.30;92.70;;;;;;5071234;28;20460;-68
2022/04/17 11:34:53;;;;;;;6.43;4.50;;;16.50;93.70;;;;;;5052907;28;20040;-68
2022/04/17 11:37:19;;;;;;;5.53;4.40;;;16.30;93.10;;;;;;5070825;28;20508;-69
2022/04/17 11:39:45;;;;;;;5.68;3.80;;;16.50;92.40;;;;;;5070670;28;20091;-68
2022/04/17 11:42:11;;;;;;;6.45;4.47;;;16.70;92.40;;;;;;5068718;28;20403;-68
2022/04/17 11:44:40;;;;;;;7.45;4.72;;;16.60;91.80;;;;;;5052414;28;20035;-68
2022/04/17 11:47:06;;;;;;;6.82;4.13;;;16.70;92.10;;;;;;5033238;28;20526;-68
2022/04/17 11:49:32;;;;;;;5.75;4.18;;;16.50;91.80;;;;;;5069686;28;20036;-68
2022/04/17 11:52:19;;;;;;;5.38;3.95;;;16.70;91.30;;;;;;5036088;28;20044;-68
2022/04/17 11:54:46;;;;;;;5.35;3.88;;;16.90;91.30;;;;;;5052686;28;20363;-68
2022/04/17 11:57:14;;;;;;;5.82;4.13;;;16.70;90.90;;;;;;5049889;28;20041;-66
2022/04/17 11:59:54;;;;;;;4.88;3.90;;;16.80;91.10;;;;;;5051188;28;20032;-68
2022/04/17 12:02:21;;;;;;;4.25;3.80;;;16.90;91.10;;;;;;5035786;28;20036;-68
2022/04/17 12:04:49;;;;;;;8.20;4.40;;;17.00;91.40;;;;;;5053170;28;20040;-68
2022/04/17 12:07:19;;;;;;;5.05;4.13;;;16.80;91.70;;;;;;5052380;28;20123;-68
2022/04/17 12:09:46;;;;;;;5.95;4.28;;;17.00;92.10;;;;;;5051135;28;20448;-69
2022/04/17 12:12:14;;;;;;;6.20;4.32;;;17.10;92.20;;;;;;5051945;28;20051;-68
2022/04/17 12:14:39;;;;;;;5.05;3.85;;;17.20;91.90;;;;;;5070492;28;20053;-69
2022/04/17 12:17:05;;;;;;;5.50;3.58;;;17.20;91.70;;;;;;5052586;28;20032;-69
2022/04/17 12:19:31;;;;;;;5.82;3.97;;;17.50;91.40;;;;;;5056424;28;20371;-68
2022/04/17 12:21:57;;;;;;;7.13;4.07;;;17.40;91.40;;;;;;5056181;28;20044;-69
2022/04/17 12:24:25;;;;;;;5.20;3.90;;;17.60;91.40;;;;;;5073568;28;20382;-68
2022/04/17 12:26:52;;;;;;;5.00;3.92;;;17.30;90.90;;;;;;5074357;28;20521;-69
2022/04/17 12:29:18;;;;;;;4.72;3.60;;;17.30;90.40;;;;;;5055183;28;20461;-69
2022/04/17 12:31:44;;;;;;;5.07;3.75;;;17.30;90.60;;;;;;5074248;28;20040;-69
2022/04/17 12:34:13;;;;;;;4.68;3.75;;;17.30;90.60;;;;;;5039285;28;20044;-68
2022/04/17 12:36:42;;;;;;;6.38;4.22;;;17.30;89.50;;;;;;5055560;28;20032;-69
2022/04/17 12:39:08;;;;;;;3.85;3.55;;;17.30;90.20;;;;;;5038740;28;20040;-66
2022/04/17 12:41:51;;;;;;;6.18;3.67;;;17.40;90.40;;;;;;5056027;28;20036;-69
2022/04/17 12:44:32;;;;;;;5.03;3.60;;;17.50;89.20;;;;;;5040285;28;20045;-69
2022/04/17 12:47:12;;;;;;;6.75;3.83;;;17.50;90.20;;;;;;5055660;28;20098;-69
2022/04/17 12:49:38;;;;;;;5.85;4.45;;;17.70;90.60;;;;;;5052369;28;20040;-69
2022/04/17 12:52:04;;;;;;;3.80;3.30;;;17.80;90.10;;;;;;5069382;28;20143;-69
2022/04/17 12:54:34;;;;;;;5.57;3.72;;;17.80;90.70;;;;;;5055269;28;20633;-69
2022/04/17 12:57:05;;;;;;;5.47;4.07;;;17.70;90.70;;;;;;5055167;28;20040;-69
2022/04/17 12:59:50;;;;;;;5.13;3.83;;;17.70;90.60;;;;;;5054994;28;20406;-68
2022/04/17 13:02:23;;;;;;;5.20;3.60;;;17.80;90.70;;;;;;5060889;28;20163;-70
2022/04/17 13:04:52;;;;;;;4.63;3.53;;;17.90;90.90;;;;;;5049495;28;20055;-69
2022/04/17 13:07:18;;;;;;;5.35;3.33;;;17.50;90.20;;;;;;5038182;28;20414;-69
2022/04/17 13:09:53;;;;;;;4.85;3.10;;;17.80;90.30;;;;;;5072749;28;20048;-69
2022/04/17 13:12:44;;;;;;;5.70;3.75;;;17.80;90.80;;;;;;5073378;28;20050;-70
2022/04/17 13:15:12;;;;;;;4.70;3.28;;;18.00;91.00;;;;;;5038418;28;20490;-69
2022/04/17 13:17:50;;;;;;;4.82;3.60;;;17.90;89.90;;;;;;5064516;22;20415;-72
2022/04/17 13:20:18;;;;;;;8.48;3.60;;;17.90;89.90;;;;;;5034141;28;20040;-72
2022/04/17 13:22:44;;;;;;;6.07;4.07;;;17.90;89.90;;;;;;5035781;28;20043;-73
2022/04/17 13:25:11;;;;;;;8.73;5.20;;;17.70;90.30;;;;;;5053686;28;20041;-71
2022/04/17 13:27:37;;;;;;;5.90;3.60;;;18.00;90.30;;;;;;5019041;28;20037;-72
2022/04/17 13:30:08;;;;;;;4.03;3.13;;;18.10;90.30;;;;;;5052638;28;20059;-71
2022/04/17 13:32:33;;;;;;;5.95;3.00;;;18.00;90.20;;;;;;5034966;28;20072;-72
2022/04/17 13:34:59;;;;;;;6.45;3.88;;;18.00;89.70;;;;;;5034657;28;20127;-72
2022/04/17 13:40:11;;;;;;;5.85;3.65;;;18.10;90.80;;;;;;5034306;28;20067;-70
2022/04/17 13:42:38;;;;;;;5.75;3.53;;;18.20;90.90;;;;;;5018751;28;20049;-70
2022/04/17 13:45:08;;;;;;;6.18;4.00;;;18.00;89.60;;;;;;5051642;28;20399;-72